Time;durP1;ratioP1;P1;durP2;ratioP2;P2;SDS_P1;SDS_P2;PMS_P1;PMS_P2;Temp;Humidity;BMP_temperature;BMP_pressure;BME280_temperature;BME280_humidity;BME280_pressure;Samples;Min_cycle;Max_cycle;Signal;HPM_P1;HPM_P2
2022/01/28 00:01:49;;;;;;;4.83;3.37;;;5.80;99.90;;;;;;2612904;47;20526;-78
2022/01/28 00:04:17;;;;;;;6.70;4.10;;;5.80;99.90;;;;;;2613572;54;20427;-78
2022/01/28 00:06:44;;;;;;;7.53;3.80;;;5.90;99.90;;;;;;2614099;54;20519;-78
2022/01/28 00:09:10;;;;;;;10.90;3.53;;;6.00;99.90;;;;;;2616260;54;20411;-79
2022/01/28 00:11:36;;;;;;;9.30;3.90;;;5.90;99.90;;;;;;2615562;54;20955;-80
2022/01/28 00:14:30;;;;;;;12.17;3.97;;;5.80;99.90;;;;;;2614879;47;20458;-80
2022/01/28 00:17:52;;;;;;;13.13;3.67;;;5.80;99.90;;;;;;2614709;54;20166;-79
2022/01/28 00:38:45;;;;;;;4.80;3.00;;;5.70;99.90;;;;;;2615222;54;20402;-80
2022/01/28 00:41:11;;;;;;;9.00;3.40;;;5.60;99.90;;;;;;2610836;54;20438;-79
2022/01/28 00:43:37;;;;;;;3.80;2.77;;;5.50;99.90;;;;;;2614838;47;20419;-78
2022/01/28 00:46:04;;;;;;;8.27;3.23;;;5.40;99.90;;;;;;2614394;54;20992;-78
2022/01/28 00:48:30;;;;;;;12.07;4.13;;;5.40;99.90;;;;;;2616007;39;20570;-79
2022/01/28 00:50:57;;;;;;;11.13;4.13;;;5.30;99.90;;;;;;2614418;54;20486;-78
2022/01/28 00:53:22;;;;;;;9.90;3.10;;;5.30;99.90;;;;;;2614752;54;20718;-79
2022/01/28 00:55:48;;;;;;;11.50;4.10;;;5.20;99.90;;;;;;2614429;54;20390;-78
2022/01/28 00:58:14;;;;;;;7.37;3.40;;;5.20;99.90;;;;;;2613570;39;20916;-79
2022/01/28 01:00:40;;;;;;;5.33;2.90;;;5.20;99.90;;;;;;2615341;54;20155;-79
2022/01/28 01:03:07;;;;;;;10.60;4.70;;;5.20;99.90;;;;;;2614683;39;20571;-79
2022/01/28 01:05:34;;;;;;;12.00;4.27;;;5.20;99.90;;;;;;2612920;54;20387;-79
2022/01/28 01:08:02;;;;;;;12.57;3.80;;;5.10;99.90;;;;;;2613001;47;20523;-79
2022/01/28 01:10:28;;;;;;;8.63;3.20;;;5.10;99.90;;;;;;2615419;31;20832;-79
2022/01/28 01:12:55;;;;;;;11.50;3.27;;;5.10;99.90;;;;;;2614653;54;20400;-79
2022/01/28 01:15:25;;;;;;;4.60;3.63;;;5.20;99.90;;;;;;2614312;54;20932;-79
2022/01/28 01:18:17;;;;;;;5.50;2.53;;;5.20;99.90;;;;;;2613258;47;20450;-78
2022/01/28 01:23:35;;;;;;;14.03;3.10;;;5.10;99.90;;;;;;2615606;54;20403;-79
2022/01/28 01:28:36;;;;;;;15.63;4.27;;;5.30;99.90;;;;;;2615419;54;20522;-79
2022/01/28 01:31:04;;;;;;;11.13;3.07;;;5.40;99.90;;;;;;2615046;47;20412;-79
2022/01/28 01:33:35;;;;;;;14.77;4.63;;;5.40;99.90;;;;;;2615164;39;20805;-79
2022/01/28 01:36:02;;;;;;;19.10;4.60;;;5.40;99.90;;;;;;2614300;54;20396;-79
2022/01/28 01:38:33;;;;;;;7.77;4.00;;;5.30;99.90;;;;;;2615002;54;20423;-79
2022/01/28 01:41:01;;;;;;;9.80;3.70;;;5.20;99.90;;;;;;2615813;54;20412;-78
2022/01/28 01:43:50;;;;;;;4.67;2.30;;;5.20;99.90;;;;;;2614883;47;20942;-78
2022/01/28 01:46:27;;;;;;;8.53;3.37;;;5.10;99.90;;;;;;2614092;54;20394;-79
2022/01/28 01:52:05;;;;;;;11.90;3.80;;;4.90;99.90;;;;;;2614470;54;20426;-79
2022/01/28 01:54:43;;;;;;;17.93;4.23;;;4.90;99.90;;;;;;2614525;54;20389;-79
2022/01/28 01:57:11;;;;;;;7.97;3.20;;;4.90;99.90;;;;;;2614286;54;20453;-80
2022/01/28 01:59:41;;;;;;;6.67;3.50;;;4.80;99.90;;;;;;2615575;54;20513;-79
2022/01/28 02:02:08;;;;;;;5.90;2.07;;;4.80;99.90;;;;;;2614210;47;20438;-77
2022/01/28 02:04:33;;;;;;;11.23;3.43;;;4.80;99.90;;;;;;2615331;54;20530;-77
2022/01/28 02:07:00;;;;;;;8.83;3.40;;;4.90;99.90;;;;;;2615660;39;20803;-77
2022/01/28 02:09:26;;;;;;;9.93;2.90;;;4.90;99.90;;;;;;2616039;46;20478;-77
2022/01/28 02:11:53;;;;;;;12.63;4.17;;;4.80;99.90;;;;;;2615388;47;20411;-77
2022/01/28 02:14:19;;;;;;;12.90;3.30;;;4.90;99.90;;;;;;2615784;54;20428;-77
2022/01/28 02:16:45;;;;;;;12.60;4.00;;;4.90;99.90;;;;;;2614964;54;20930;-77
2022/01/28 02:19:11;;;;;;;12.60;3.77;;;4.90;99.90;;;;;;2614592;47;20497;-77
2022/01/28 02:21:44;;;;;;;17.93;3.30;;;5.00;99.90;;;;;;2615903;54;21289;-77
2022/01/28 02:24:11;;;;;;;15.23;4.70;;;5.10;99.90;;;;;;2615660;51;20419;-77
2022/01/28 02:26:37;;;;;;;9.20;3.50;;;5.10;99.90;;;;;;2615249;39;20897;-77
2022/01/28 02:29:10;;;;;;;8.60;3.63;;;5.10;99.90;;;;;;2614955;54;20450;-76
2022/01/28 02:31:37;;;;;;;9.57;3.00;;;5.20;99.90;;;;;;2616096;54;20967;-78
2022/01/28 02:34:04;;;;;;;10.17;2.80;;;5.20;99.90;;;;;;2615271;47;20411;-77
2022/01/28 02:36:30;;;;;;;15.83;3.50;;;5.30;99.90;;;;;;2614686;54;20419;-77
2022/01/28 02:39:00;;;;;;;6.50;2.63;;;5.30;99.90;;;;;;2613955;47;20964;-77
2022/01/28 02:41:31;;;;;;;8.40;2.67;;;5.20;99.90;;;;;;2614993;50;20457;-77
2022/01/28 02:46:53;;;;;;;5.63;3.30;;;5.30;99.90;;;;;;2613346;54;20431;-78
2022/01/28 02:49:19;;;;;;;8.43;3.03;;;5.30;99.90;;;;;;2615199;54;20398;-77
2022/01/28 02:51:45;;;;;;;10.23;2.77;;;5.40;99.90;;;;;;2615235;47;20434;-76
2022/01/28 02:54:13;;;;;;;10.00;2.63;;;5.40;99.90;;;;;;2615204;47;20418;-77
2022/01/28 02:56:47;;;;;;;13.00;4.20;;;5.40;99.90;;;;;;2612623;47;20395;-76
2022/01/28 02:59:13;;;;;;;9.53;3.30;;;5.40;99.90;;;;;;2615508;39;20849;-78
2022/01/28 03:01:39;;;;;;;13.10;3.90;;;5.20;99.90;;;;;;2614794;47;20423;-77
2022/01/28 03:04:06;;;;;;;10.07;3.43;;;5.10;99.90;;;;;;2612412;39;20858;-78
2022/01/28 03:06:33;;;;;;;9.63;3.40;;;5.00;99.90;;;;;;2613610;54;20691;-77
2022/01/28 03:09:08;;;;;;;16.43;4.50;;;5.00;99.90;;;;;;2615394;54;20422;-78
2022/01/28 03:19:29;;;;;;;16.07;3.90;;;4.90;99.90;;;;;;2614180;54;20391;-77
2022/01/28 03:21:56;;;;;;;9.00;3.77;;;4.80;99.90;;;;;;2614588;54;20978;-77
2022/01/28 03:24:27;;;;;;;12.77;4.10;;;4.70;99.90;;;;;;2615054;54;20420;-77
2022/01/28 03:27:03;;;;;;;22.07;2.90;;;4.70;99.90;;;;;;2614776;54;20395;-77
2022/01/28 03:29:28;;;;;;;17.47;5.27;;;4.70;99.90;;;;;;2615117;47;20486;-77
2022/01/28 03:31:54;;;;;;;10.30;5.47;;;4.70;99.90;;;;;;2615618;47;20974;-77
2022/01/28 03:34:20;;;;;;;8.63;2.70;;;4.80;99.90;;;;;;2615767;47;20194;-78
2022/01/28 03:36:46;;;;;;;7.00;3.10;;;4.80;99.90;;;;;;2615202;47;20435;-77
2022/01/28 03:39:13;;;;;;;6.03;3.17;;;4.70;99.90;;;;;;2614981;54;20469;-79
2022/01/28 03:41:39;;;;;;;10.33;3.53;;;4.70;99.90;;;;;;2615053;54;20442;-78
2022/01/28 03:44:06;;;;;;;15.93;3.23;;;4.60;99.90;;;;;;2615161;54;21288;-78
2022/01/28 03:46:33;;;;;;;4.57;3.20;;;4.60;99.90;;;;;;2616000;39;20795;-78
2022/01/28 03:48:59;;;;;;;12.00;3.63;;;4.60;99.90;;;;;;2615456;54;20402;-78
2022/01/28 03:51:25;;;;;;;11.10;3.20;;;4.60;99.90;;;;;;2614877;54;21027;-78
2022/01/28 03:53:51;;;;;;;12.70;2.50;;;4.60;99.90;;;;;;2616394;54;20404;-78
2022/01/28 03:56:17;;;;;;;8.73;3.43;;;4.60;99.90;;;;;;2612983;47;20424;-77
2022/01/28 03:58:44;;;;;;;6.00;3.80;;;4.50;99.90;;;;;;2615089;51;20732;-77
2022/01/28 04:01:20;;;;;;;9.13;4.37;;;4.60;99.90;;;;;;2615853;54;20419;-77
2022/01/28 04:04:03;;;;;;;5.00;2.60;;;4.70;99.90;;;;;;2615120;54;20530;-77
2022/01/28 04:12:17;;;;;;;15.13;5.33;;;4.80;99.90;;;;;;2614268;54;20490;-76
2022/01/28 04:14:58;;;;;;;9.23;3.40;;;4.90;99.90;;;;;;2614682;39;20820;-77
2022/01/28 04:17:24;;;;;;;9.60;2.60;;;4.90;99.90;;;;;;2614582;47;20436;-78
2022/01/28 04:19:52;;;;;;;11.27;3.70;;;4.90;99.90;;;;;;2614120;47;20972;-79
2022/01/28 04:22:19;;;;;;;9.07;4.77;;;5.00;99.90;;;;;;2610281;47;20167;-77
2022/01/28 04:24:45;;;;;;;16.77;3.30;;;5.00;99.90;;;;;;2611730;47;20399;-78
2022/01/28 04:27:11;;;;;;;11.50;4.10;;;5.00;99.90;;;;;;2611713;54;20556;-77
2022/01/28 04:29:37;;;;;;;9.40;3.20;;;5.00;99.90;;;;;;2611567;54;20399;-77
2022/01/28 04:32:04;;;;;;;5.03;2.30;;;5.00;99.90;;;;;;2611976;39;20826;-77
2022/01/28 04:34:30;;;;;;;14.97;3.80;;;5.00;99.90;;;;;;2611958;47;20491;-78
2022/01/28 04:37:12;;;;;;;10.50;3.50;;;5.00;99.90;;;;;;2611737;47;20470;-77
2022/01/28 05:00:16;;;;;;;10.27;5.77;;;5.10;99.90;;;;;;2614345;51;20403;-78
2022/01/28 05:27:51;;;;;;;9.13;4.70;;;5.30;99.90;;;;;;2611801;39;20846;-78
2022/01/28 05:30:17;;;;;;;8.40;3.57;;;5.10;99.90;;;;;;2612073;39;20805;-78
2022/01/28 05:32:43;;;;;;;6.50;3.00;;;5.10;99.90;;;;;;2612319;54;20434;-78
2022/01/28 05:35:09;;;;;;;14.43;4.73;;;5.10;99.90;;;;;;2612677;47;21064;-77
2022/01/28 05:37:34;;;;;;;15.00;3.70;;;5.00;99.90;;;;;;2612139;47;20919;-77
2022/01/28 05:40:00;;;;;;;13.83;3.70;;;4.90;99.90;;;;;;2611822;54;20415;-77
2022/01/28 05:42:27;;;;;;;18.93;4.67;;;4.90;99.90;;;;;;2613541;47;20171;-78
2022/01/28 05:44:53;;;;;;;3.70;2.80;;;4.90;99.90;;;;;;2615019;54;20435;-78
2022/01/28 05:47:21;;;;;;;12.30;3.67;;;4.80;99.90;;;;;;2613746;54;20948;-78
2022/01/28 05:49:47;;;;;;;8.57;3.20;;;4.90;99.90;;;;;;2613148;54;20158;-77
2022/01/28 05:52:13;;;;;;;12.17;3.17;;;4.90;99.90;;;;;;2612954;54;20415;-77
2022/01/28 05:54:38;;;;;;;14.87;3.10;;;4.90;99.90;;;;;;2612005;47;20411;-77
2022/01/28 05:57:04;;;;;;;9.57;4.60;;;4.90;99.90;;;;;;2613352;54;20180;-78
2022/01/28 05:59:31;;;;;;;13.50;2.80;;;4.90;99.90;;;;;;2614011;54;20142;-77
2022/01/28 06:01:57;;;;;;;5.03;2.50;;;4.90;99.90;;;;;;2615432;39;20805;-77
2022/01/28 06:04:23;;;;;;;6.07;2.87;;;4.80;99.90;;;;;;2615148;54;20514;-77
2022/01/28 06:06:49;;;;;;;7.80;3.97;;;4.80;99.90;;;;;;2612966;54;20151;-77
2022/01/28 06:09:15;;;;;;;14.50;4.80;;;4.80;99.90;;;;;;2612940;39;20808;-77
2022/01/28 06:11:43;;;;;;;15.50;5.33;;;4.90;99.90;;;;;;2613151;47;20478;-77
2022/01/28 06:14:09;;;;;;;6.47;3.60;;;4.90;99.90;;;;;;2613331;54;20182;-77
2022/01/28 06:16:34;;;;;;;9.70;3.63;;;4.90;99.90;;;;;;2613468;54;20410;-77
2022/01/28 06:19:01;;;;;;;6.87;2.90;;;5.00;99.90;;;;;;2612624;47;20158;-78
2022/01/28 06:21:27;;;;;;;14.43;4.03;;;5.00;99.90;;;;;;2613590;47;20785;-79
2022/01/28 06:23:52;;;;;;;5.03;2.97;;;5.00;99.90;;;;;;2613314;54;20883;-78
2022/01/28 06:26:19;;;;;;;14.90;3.83;;;4.90;99.90;;;;;;2613398;54;20967;-79
2022/01/28 06:28:45;;;;;;;9.30;4.30;;;4.80;99.90;;;;;;2612468;51;20695;-78
2022/01/28 06:31:11;;;;;;;15.57;3.30;;;4.80;99.90;;;;;;2613051;54;20547;-78
2022/01/28 06:33:37;;;;;;;19.33;4.43;;;4.80;99.90;;;;;;2612647;54;20143;-77
2022/01/28 06:36:03;;;;;;;6.73;3.03;;;4.80;99.90;;;;;;2614238;39;20796;-77
2022/01/28 06:38:30;;;;;;;5.00;2.53;;;4.80;99.90;;;;;;2613600;47;20522;-78
2022/01/28 06:40:56;;;;;;;7.47;4.07;;;4.70;99.90;;;;;;2613348;54;21097;-78
2022/01/28 06:43:22;;;;;;;13.30;3.77;;;4.70;99.90;;;;;;2613558;54;20522;-77
2022/01/28 06:45:48;;;;;;;10.67;4.73;;;4.70;99.90;;;;;;2614940;39;20795;-78
2022/01/28 06:48:16;;;;;;;7.67;3.40;;;4.80;99.90;;;;;;2612753;47;20523;-77
2022/01/28 06:50:43;;;;;;;14.93;3.40;;;4.80;99.90;;;;;;2613096;47;20481;-78
2022/01/28 06:53:10;;;;;;;8.00;4.37;;;4.80;99.90;;;;;;2609691;39;20806;-77
2022/01/28 06:55:36;;;;;;;7.63;3.40;;;4.80;99.90;;;;;;2611173;47;20438;-78
2022/01/28 06:58:07;;;;;;;4.17;3.00;;;4.70;99.90;;;;;;2612385;54;20424;-78
2022/01/28 07:00:37;;;;;;;13.53;5.30;;;4.60;99.90;;;;;;2614392;31;21110;-78
2022/01/28 07:03:21;;;;;;;12.90;3.97;;;4.50;99.90;;;;;;2611980;46;20433;-78
2022/01/28 07:05:47;;;;;;;10.47;4.30;;;4.40;99.90;;;;;;2613167;39;20800;-78
2022/01/28 07:08:13;;;;;;;7.30;4.10;;;4.30;99.90;;;;;;2612252;54;20415;-78
2022/01/28 07:10:39;;;;;;;9.13;3.90;;;4.20;99.90;;;;;;2611408;54;20495;-78
2022/01/28 07:13:05;;;;;;;17.33;4.40;;;4.30;99.90;;;;;;2612094;54;20163;-79
2022/01/28 07:15:31;;;;;;;13.40;3.80;;;4.40;99.90;;;;;;2611773;54;20550;-79
2022/01/28 07:18:04;;;;;;;21.83;4.23;;;4.40;99.90;;;;;;2610997;54;20416;-79
2022/01/28 07:20:31;;;;;;;22.63;6.53;;;4.40;99.90;;;;;;2611790;47;20431;-78
2022/01/28 07:22:58;;;;;;;12.10;4.30;;;4.40;99.90;;;;;;2612943;46;20431;-78
2022/01/28 07:25:23;;;;;;;16.53;4.83;;;4.40;99.90;;;;;;2612809;54;20412;-78
2022/01/28 07:27:49;;;;;;;16.00;5.20;;;4.50;99.90;;;;;;2629221;36;20467;-79
2022/01/28 07:30:15;;;;;;;16.27;5.43;;;4.50;99.90;;;;;;2611541;54;20155;-79
2022/01/28 07:32:42;;;;;;;8.73;5.40;;;4.70;99.90;;;;;;2612599;54;20590;-78
2022/01/28 07:35:08;;;;;;;13.90;5.90;;;4.60;99.90;;;;;;2612327;47;20182;-78
2022/01/28 07:37:34;;;;;;;12.23;6.10;;;4.50;99.90;;;;;;2613055;39;20812;-79
2022/01/28 07:40:02;;;;;;;14.17;5.90;;;4.40;99.90;;;;;;2612780;47;20502;-79
2022/01/28 07:42:34;;;;;;;16.87;6.77;;;4.30;99.90;;;;;;2612513;54;20895;-79
2022/01/28 07:45:02;;;;;;;15.27;5.83;;;4.40;99.90;;;;;;2611962;51;20480;-79
2022/01/28 07:47:28;;;;;;;21.57;8.90;;;4.30;99.90;;;;;;2612639;54;20411;-79
2022/01/28 07:49:54;;;;;;;17.67;6.40;;;4.40;99.90;;;;;;2613381;54;20980;-79
2022/01/28 07:52:20;;;;;;;12.57;5.67;;;4.40;99.90;;;;;;2613200;54;20143;-78
2022/01/28 07:54:49;;;;;;;18.43;6.23;;;4.40;99.90;;;;;;2613353;54;20394;-78
2022/01/28 07:57:15;;;;;;;20.30;5.93;;;4.40;99.90;;;;;;2611901;47;20242;-78
2022/01/28 07:59:40;;;;;;;16.93;5.47;;;4.40;99.90;;;;;;2613344;39;20978;-78
2022/01/28 08:02:07;;;;;;;16.83;5.60;;;4.40;99.90;;;;;;2612207;54;20155;-79
2022/01/28 08:04:33;;;;;;;11.00;6.20;;;4.60;99.90;;;;;;2612552;54;20171;-79
2022/01/28 08:06:59;;;;;;;22.23;5.30;;;4.60;99.90;;;;;;2614074;54;21007;-79
2022/01/28 08:09:25;;;;;;;15.93;5.40;;;4.70;99.90;;;;;;2612614;54;20151;-78
2022/01/28 08:11:51;;;;;;;7.70;4.20;;;4.80;99.90;;;;;;2612867;54;20719;-78
2022/01/28 08:14:16;;;;;;;15.40;4.80;;;5.00;99.90;;;;;;2612760;54;20186;-79
2022/01/28 08:16:42;;;;;;;14.70;5.23;;;5.00;99.90;;;;;;2612432;47;20173;-79
2022/01/28 08:19:09;;;;;;;10.70;3.90;;;5.10;99.90;;;;;;2613802;47;20170;-79
2022/01/28 08:21:36;;;;;;;10.63;3.77;;;5.00;99.90;;;;;;2613059;47;20166;-79
2022/01/28 08:24:02;;;;;;;21.97;5.10;;;5.00;99.90;;;;;;2612854;54;20459;-79
2022/01/28 08:26:27;;;;;;;23.47;6.10;;;5.10;99.90;;;;;;2612802;54;20412;-78
2022/01/28 08:28:53;;;;;;;8.93;4.50;;;5.40;99.90;;;;;;2612642;51;20495;-78
2022/01/28 08:31:19;;;;;;;14.03;4.77;;;5.50;99.90;;;;;;2612688;54;20686;-78
2022/01/28 08:33:46;;;;;;;9.33;4.50;;;5.30;99.90;;;;;;2612301;54;20395;-79
2022/01/28 08:36:11;;;;;;;13.57;4.50;;;5.40;99.90;;;;;;2612380;47;20420;-78
2022/01/28 08:38:44;;;;;;;11.53;5.23;;;5.40;99.90;;;;;;2612735;54;22500;-78
2022/01/28 08:41:12;;;;;;;8.33;4.70;;;5.50;99.90;;;;;;2612132;54;20142;-79
2022/01/28 08:43:42;;;;;;;14.30;4.53;;;5.80;99.90;;;;;;2612637;54;20432;-78
2022/01/28 08:46:09;;;;;;;11.70;4.00;;;5.90;99.90;;;;;;2612435;47;20980;-79
2022/01/28 08:48:35;;;;;;;19.33;5.60;;;5.90;99.90;;;;;;2614274;39;20852;-79
2022/01/28 08:51:01;;;;;;;8.87;4.37;;;6.00;99.90;;;;;;2612152;47;20435;-80
2022/01/28 08:53:27;;;;;;;19.13;5.87;;;5.90;99.90;;;;;;2612985;54;20234;-80
2022/01/28 08:55:52;;;;;;;11.90;4.30;;;5.90;99.90;;;;;;2611971;47;20451;-78
2022/01/28 08:58:18;;;;;;;18.37;4.97;;;5.90;99.90;;;;;;2612634;39;20265;-78
2022/01/28 09:00:47;;;;;;;15.17;5.70;;;5.80;99.90;;;;;;2611522;54;20246;-78
2022/01/28 09:03:15;;;;;;;8.90;3.90;;;6.30;99.90;;;;;;2611349;54;20173;-78
2022/01/28 09:05:41;;;;;;;5.93;2.50;;;7.00;99.90;;;;;;2611740;49;20462;-79
2022/01/28 09:08:09;;;;;;;7.90;3.60;;;6.90;99.90;;;;;;2611660;54;20514;-79
2022/01/28 09:10:38;;;;;;;15.20;5.03;;;7.10;99.90;;;;;;2612298;47;20482;-80
2022/01/28 09:15:50;;;;;;;11.00;4.40;;;7.30;99.90;;;;;;2612515;47;20439;-79
2022/01/28 09:18:17;;;;;;;16.00;4.13;;;7.40;99.90;;;;;;2610810;54;20434;-78
2022/01/28 09:20:43;;;;;;;17.50;3.90;;;7.90;99.90;;;;;;2610526;54;20399;-79
2022/01/28 09:23:09;;;;;;;9.93;5.10;;;7.90;99.90;;;;;;2613179;54;20535;-78
2022/01/28 09:25:35;;;;;;;10.80;4.80;;;7.80;99.90;;;;;;2611317;47;21902;-78
2022/01/28 09:28:01;;;;;;;10.40;4.13;;;8.50;99.90;;;;;;2610674;54;20250;-78
2022/01/28 09:30:27;;;;;;;15.33;4.17;;;8.80;99.90;;;;;;2610927;54;20157;-78
2022/01/28 09:32:53;;;;;;;13.43;4.60;;;9.20;99.90;;;;;;2611666;54;20510;-78
2022/01/28 09:35:19;;;;;;;7.80;3.23;;;9.30;99.90;;;;;;2611981;47;21124;-79
2022/01/28 09:37:45;;;;;;;18.37;4.90;;;9.50;99.90;;;;;;2611979;47;20402;-79
2022/01/28 09:40:12;;;;;;;13.17;6.17;;;10.00;99.90;;;;;;2611185;47;21071;-78
2022/01/28 09:42:41;;;;;;;18.33;4.60;;;8.90;99.90;;;;;;2611846;54;20558;-77
2022/01/28 09:45:09;;;;;;;11.27;4.47;;;9.30;99.90;;;;;;2611068;54;20430;-79
2022/01/28 09:47:36;;;;;;;14.87;4.67;;;9.30;99.90;;;;;;2611809;39;20899;-79
2022/01/28 09:50:04;;;;;;;19.43;5.07;;;9.70;99.90;;;;;;2612187;47;20430;-78
2022/01/28 09:52:30;;;;;;;19.97;4.70;;;10.20;99.90;;;;;;2613547;39;20980;-79
2022/01/28 09:54:56;;;;;;;14.80;4.77;;;10.40;99.90;;;;;;2612315;54;20445;-79
2022/01/28 09:57:21;;;;;;;13.20;5.40;;;11.00;99.90;;;;;;2611230;49;20258;-78
2022/01/28 09:59:47;;;;;;;11.57;4.67;;;11.70;99.90;;;;;;2611499;54;20161;-80
2022/01/28 10:02:14;;;;;;;14.93;4.40;;;12.50;98.20;;;;;;2611427;47;20182;-78
2022/01/28 10:04:40;;;;;;;7.97;4.40;;;13.70;81.10;;;;;;2611178;47;20427;-79
2022/01/28 10:07:17;;;;;;;15.90;4.00;;;13.20;80.70;;;;;;2613655;47;20420;-79
2022/01/28 10:09:55;;;;;;;21.10;5.40;;;13.50;73.40;;;;;;2612035;54;20203;-79
2022/01/28 10:12:30;;;;;;;18.20;4.13;;;11.60;99.90;;;;;;2611183;47;20427;-78
2022/01/28 10:15:16;;;;;;;10.93;4.53;;;12.40;98.80;;;;;;2611446;47;20586;-81
2022/01/28 10:17:50;;;;;;;14.70;4.27;;;12.90;90.10;;;;;;2611576;47;20419;-78
2022/01/28 10:20:16;;;;;;;13.63;4.70;;;12.50;83.30;;;;;;2611711;39;20932;-79
2022/01/28 10:23:01;;;;;;;18.70;4.70;;;12.10;93.80;;;;;;2612720;54;20394;-80
2022/01/28 10:25:35;;;;;;;13.17;4.37;;;11.90;98.40;;;;;;2611869;47;20199;-79
2022/01/28 10:28:13;;;;;;;10.07;4.40;;;12.60;89.30;;;;;;2613360;54;20431;-79
2022/01/28 10:30:42;;;;;;;11.43;3.90;;;12.90;90.20;;;;;;2612349;47;20593;-79
2022/01/28 10:33:22;;;;;;;16.37;4.23;;;13.10;64.80;;;;;;2612632;54;20410;-79
2022/01/28 10:35:59;;;;;;;15.40;4.00;;;12.90;63.10;;;;;;2612694;54;21133;-80
2022/01/28 10:38:41;;;;;;;16.87;3.80;;;13.70;59.20;;;;;;2612118;54;21018;-78
2022/01/28 10:41:18;;;;;;;11.47;4.20;;;14.50;50.40;;;;;;2611912;47;20440;-78
2022/01/28 10:43:50;;;;;;;17.70;4.03;;;14.80;51.30;;;;;;2612757;39;20913;-80
2022/01/28 10:46:23;;;;;;;13.30;4.00;;;14.10;53.40;;;;;;2612318;47;20427;-78
2022/01/28 10:48:58;;;;;;;10.70;4.30;;;12.60;73.60;;;;;;2611906;54;20427;-79
2022/01/28 10:51:44;;;;;;;9.57;3.30;;;11.80;94.20;;;;;;2611797;47;20525;-79
2022/01/28 10:54:11;;;;;;;10.57;4.23;;;12.10;90.20;;;;;;2611986;47;20412;-79
2022/01/28 10:56:58;;;;;;;10.80;4.93;;;12.40;74.80;;;;;;2612601;39;20844;-79
2022/01/28 10:59:30;;;;;;;7.43;4.00;;;11.90;74.90;;;;;;2611429;47;20422;-79
2022/01/28 11:01:57;;;;;;;11.83;4.40;;;11.70;75.90;;;;;;2611201;47;20473;-79
2022/01/28 11:04:23;;;;;;;9.70;4.13;;;11.20;89.90;;;;;;2611971;54;20998;-79
2022/01/28 11:06:52;;;;;;;9.60;4.17;;;10.60;98.70;;;;;;2611296;54;21250;-80
2022/01/28 11:09:21;;;;;;;12.50;3.83;;;9.40;99.90;;;;;;2612209;47;21103;-79
2022/01/28 11:11:48;;;;;;;15.60;4.07;;;9.40;99.90;;;;;;2611421;47;22360;-79
2022/01/28 11:14:14;;;;;;;13.40;4.20;;;9.70;98.70;;;;;;2611334;47;20448;-79
2022/01/28 11:16:40;;;;;;;15.97;4.10;;;9.60;96.20;;;;;;2612465;54;20395;-79
2022/01/28 11:19:09;;;;;;;10.47;4.63;;;10.20;96.30;;;;;;2612321;46;20434;-79
2022/01/28 11:21:44;;;;;;;14.70;4.23;;;10.30;85.40;;;;;;2612190;54;20987;-80
2022/01/28 11:24:25;;;;;;;12.73;4.60;;;10.60;77.70;;;;;;2613086;54;20546;-79
2022/01/28 11:26:59;;;;;;;10.70;4.20;;;10.10;84.60;;;;;;2611751;54;20428;-79
2022/01/28 11:29:28;;;;;;;20.83;6.90;;;10.30;81.40;;;;;;2612518;54;21049;-79
2022/01/28 11:32:08;;;;;;;19.83;6.23;;;10.30;78.50;;;;;;2611936;54;20416;-78
2022/01/28 11:34:36;;;;;;;14.37;4.87;;;9.70;92.90;;;;;;2611527;31;20911;-80
2022/01/28 11:37:01;;;;;;;15.60;4.27;;;10.10;91.00;;;;;;2611792;54;20491;-79
2022/01/28 11:39:33;;;;;;;11.27;4.23;;;10.30;85.40;;;;;;2612667;54;20419;-80
2022/01/28 11:42:08;;;;;;;15.97;3.87;;;11.80;63.70;;;;;;2613203;54;20149;-78
2022/01/28 11:44:42;;;;;;;8.67;3.70;;;11.30;66.90;;;;;;2612209;54;20434;-78
2022/01/28 11:47:11;;;;;;;7.67;4.50;;;9.70;91.20;;;;;;2613949;39;20896;-79
2022/01/28 11:50:08;;;;;;;10.37;4.20;;;10.60;77.10;;;;;;2613293;54;20426;-78
2022/01/28 11:52:38;;;;;;;17.40;4.33;;;12.30;50.00;;;;;;2611899;47;21195;-78
2022/01/28 11:55:20;;;;;;;8.17;3.40;;;12.30;50.00;;;;;;2612803;54;20419;-78
2022/01/28 11:58:07;;;;;;;12.70;3.20;;;13.40;42.50;;;;;;2612088;39;20820;-79
2022/01/28 12:00:39;;;;;;;11.20;3.13;;;12.00;48.30;;;;;;2612314;54;20798;-78
2022/01/28 12:03:21;;;;;;;15.03;3.30;;;13.00;46.50;;;;;;2611872;47;20434;-79
2022/01/28 12:05:47;;;;;;;14.40;4.10;;;13.60;38.00;;;;;;2612373;54;20402;-79
2022/01/28 12:08:16;;;;;;;16.90;3.23;;;13.10;38.80;;;;;;2612962;54;20996;-79
2022/01/28 12:10:45;;;;;;;11.37;4.17;;;12.70;43.60;;;;;;2611333;48;20173;-79
2022/01/28 12:13:17;;;;;;;16.53;3.83;;;12.60;46.10;;;;;;2612250;39;20812;-79
2022/01/28 12:18:25;;;;;;;10.03;3.77;;;14.60;31.20;;;;;;2611203;47;20424;-78
2022/01/28 12:20:52;;;;;;;15.60;4.10;;;12.00;45.10;;;;;;2611793;54;20417;-79
2022/01/28 12:23:18;;;;;;;10.17;4.97;;;11.30;54.80;;;;;;2611316;47;20429;-79
2022/01/28 12:25:44;;;;;;;10.60;3.50;;;10.70;62.90;;;;;;2612563;39;20784;-79
2022/01/28 12:28:21;;;;;;;17.03;4.87;;;9.80;88.40;;;;;;2610109;47;20957;-80
2022/01/28 12:31:03;;;;;;;18.97;4.40;;;9.40;92.50;;;;;;2611713;54;20414;-79
2022/01/28 12:33:32;;;;;;;11.93;4.03;;;10.30;82.50;;;;;;2612367;39;20839;-80
2022/01/28 12:36:05;;;;;;;11.57;3.10;;;12.80;46.50;;;;;;2611791;54;21185;-79
2022/01/28 12:38:32;;;;;;;17.13;4.20;;;14.50;33.70;;;;;;2610419;47;20415;-79
2022/01/28 12:41:06;;;;;;;8.50;3.50;;;16.00;27.90;;;;;;2609738;54;21561;-80
2022/01/28 12:43:33;;;;;;;18.63;5.93;;;16.90;26.40;;;;;;2611030;47;20426;-80
2022/01/28 12:46:08;;;;;;;11.80;4.23;;;17.90;24.50;;;;;;2608773;47;20944;-79
2022/01/28 12:48:34;;;;;;;9.30;3.70;;;17.00;24.50;;;;;;2628631;36;20499;-80
2022/01/28 12:51:02;;;;;;;7.67;3.70;;;17.60;24.70;;;;;;2612001;54;20987;-79
2022/01/28 12:53:35;;;;;;;7.40;3.23;;;17.50;24.90;;;;;;2611813;39;20810;-79
2022/01/28 12:56:04;;;;;;;11.63;4.67;;;15.20;28.10;;;;;;2611927;54;20511;-80
2022/01/28 12:58:32;;;;;;;16.57;4.57;;;12.30;49.70;;;;;;2610495;39;21066;-80
2022/01/28 13:01:09;;;;;;;18.20;3.97;;;11.10;67.60;;;;;;2611471;49;20440;-80
2022/01/28 13:03:44;;;;;;;11.03;4.50;;;9.80;91.60;;;;;;2611893;47;20411;-79
2022/01/28 13:06:42;;;;;;;18.13;6.20;;;9.20;99.90;;;;;;2612542;47;20427;-78
2022/01/28 13:09:13;;;;;;;13.17;4.70;;;8.80;99.90;;;;;;2612576;54;20542;-79
2022/01/28 13:11:47;;;;;;;18.50;4.87;;;8.90;99.90;;;;;;2612497;54;20996;-81
2022/01/28 13:14:15;;;;;;;10.33;4.30;;;9.00;99.90;;;;;;2611888;47;21071;-79
2022/01/28 13:16:45;;;;;;;11.40;3.80;;;9.00;99.90;;;;;;2612062;39;21027;-78
2022/01/28 13:19:13;;;;;;;7.83;3.90;;;11.00;72.00;;;;;;2612003;39;20922;-78
2022/01/28 13:21:42;;;;;;;9.40;4.33;;;12.50;49.70;;;;;;2611972;54;20447;-81
2022/01/28 13:24:20;;;;;;;17.23;3.63;;;11.50;60.30;;;;;;2611250;47;20427;-80
2022/01/28 13:26:58;;;;;;;12.00;3.97;;;11.60;58.00;;;;;;2611886;54;20939;-80
2022/01/28 13:29:38;;;;;;;17.57;4.33;;;10.20;78.10;;;;;;2611625;47;20414;-78
2022/01/28 13:32:08;;;;;;;9.57;4.07;;;10.30;81.70;;;;;;2611213;47;20458;-79
2022/01/28 13:34:50;;;;;;;15.70;3.90;;;11.40;59.30;;;;;;2611421;47;20429;-79
2022/01/28 13:37:42;;;;;;;18.90;4.80;;;12.40;48.80;;;;;;2611738;54;20907;-79
2022/01/28 13:40:10;;;;;;;7.97;3.50;;;13.50;39.90;;;;;;2612588;39;20834;-80
2022/01/28 13:43:01;;;;;;;9.23;3.93;;;13.30;41.40;;;;;;2610506;47;20430;-78
2022/01/28 13:45:28;;;;;;;8.60;4.00;;;12.20;45.90;;;;;;2612281;54;20416;-79
2022/01/28 13:47:54;;;;;;;8.90;3.97;;;12.90;45.40;;;;;;2609689;54;20990;-78
2022/01/28 13:50:29;;;;;;;14.40;4.30;;;13.20;41.70;;;;;;2610591;47;20422;-79
2022/01/28 13:56:02;;;;;;;5.27;3.07;;;16.00;29.40;;;;;;2612095;54;20424;-79
2022/01/28 13:58:30;;;;;;;9.50;3.40;;;13.60;37.10;;;;;;2611927;54;20439;-79
2022/01/28 14:00:56;;;;;;;12.70;4.40;;;13.80;37.60;;;;;;2609648;54;20418;-79
2022/01/28 14:03:26;;;;;;;8.97;3.83;;;13.30;38.00;;;;;;2611533;31;20890;-79
2022/01/28 14:05:57;;;;;;;13.20;5.90;;;14.20;35.80;;;;;;2610919;47;20411;-79
2022/01/28 14:08:47;;;;;;;3.47;3.17;;;13.40;37.80;;;;;;2611179;47;20453;-79
2022/01/28 14:11:26;;;;;;;4.70;4.23;;;11.00;55.60;;;;;;2612267;47;20437;-78
2022/01/28 14:14:22;;;;;;;8.60;5.17;;;9.80;82.00;;;;;;2611530;39;20898;-78
2022/01/28 14:16:59;;;;;;;14.27;6.87;;;10.00;83.20;;;;;;2611142;46;20415;-80
2022/01/28 14:19:27;;;;;;;12.27;6.37;;;9.70;89.20;;;;;;2610948;47;20439;-80
2022/01/28 14:21:54;;;;;;;10.07;6.07;;;9.40;94.70;;;;;;2612071;54;20419;-80
2022/01/28 14:24:26;;;;;;;7.17;4.37;;;9.40;96.80;;;;;;2611832;47;21454;-79
2022/01/28 14:27:12;;;;;;;17.97;7.10;;;9.50;95.60;;;;;;2610788;54;20414;-80
2022/01/28 14:32:11;;;;;;;8.23;5.10;;;8.70;99.90;;;;;;2613077;54;20426;-78
2022/01/28 14:34:39;;;;;;;14.77;6.97;;;8.20;99.90;;;;;;2612690;54;20467;-79
2022/01/28 14:37:05;;;;;;;12.07;6.97;;;7.90;99.90;;;;;;2611648;47;20486;-79
2022/01/28 14:39:33;;;;;;;13.87;6.40;;;8.00;99.90;;;;;;2612911;54;20499;-78
2022/01/28 14:42:03;;;;;;;11.63;5.70;;;8.10;99.90;;;;;;2612773;47;20454;-79